createdAt,value
2019-01-29T00:03:30.285Z,95.60
2019-01-29T00:07:41.211Z,95.40
2019-01-29T00:11:52.178Z,95.20
2019-01-29T00:16:03.178Z,95.00
2019-01-29T00:20:14.116Z,95.00
2019-01-29T00:24:25.028Z,94.90
2019-01-29T00:28:36.137Z,95.20
2019-01-29T00:32:47.276Z,94.50
2019-01-29T00:36:58.321Z,94.60
2019-01-29T00:41:08.259Z,94.40
2019-01-29T00:45:19.150Z,94.40
2019-01-29T00:49:30.147Z,94.20
2019-01-29T00:53:41.177Z,94.20
2019-01-29T00:57:54.083Z,94.50
2019-01-29T01:02:05.108Z,94.50
2019-01-29T01:06:16.037Z,94.10
2019-01-29T01:10:27.066Z,94.00
2019-01-29T01:14:37.989Z,93.90
2019-01-29T01:18:48.813Z,94.60
2019-01-29T01:22:59.846Z,95.90
2019-01-29T01:27:10.863Z,97.00
2019-01-29T01:31:21.897Z,98.30
2019-01-29T01:35:32.695Z,98.90
2019-01-29T01:39:44.454Z,99.40
2019-01-29T01:43:55.223Z,99.60
2019-01-29T01:48:06.137Z,99.70
2019-01-29T01:52:17.103Z,99.90
2019-01-29T01:56:28.083Z,99.90
2019-01-29T02:00:39.162Z,99.90
2019-01-29T02:04:49.999Z,99.90
2019-01-29T02:09:01.071Z,99.90
2019-01-29T02:13:12.216Z,99.90
2019-01-29T02:17:23.311Z,99.90
2019-01-29T02:21:34.197Z,99.90
2019-01-29T02:25:45.142Z,99.90
2019-01-29T02:29:56.483Z,99.90
2019-01-29T02:34:08.433Z,99.90
2019-01-29T02:38:19.393Z,99.90
2019-01-29T02:42:30.421Z,99.90
2019-01-29T02:46:41.417Z,99.90
2019-01-29T02:50:52.452Z,99.90
2019-01-29T02:55:21.743Z,99.90
2019-01-29T03:00:10.036Z,99.90
2019-01-29T03:04:39.592Z,99.90
2019-01-29T03:09:08.477Z,99.90
2019-01-29T03:13:19.465Z,99.90
2019-01-29T03:17:30.628Z,99.90
2019-01-29T03:21:41.444Z,99.90
2019-01-29T03:25:54.820Z,99.90
2019-01-29T03:30:09.290Z,99.90
2019-01-29T03:34:20.208Z,99.90
2019-01-29T03:38:31.324Z,99.50
2019-01-29T03:42:42.361Z,99.50
2019-01-29T03:46:53.155Z,99.30
2019-01-29T03:51:04.036Z,98.40
2019-01-29T03:55:16.127Z,98.30
2019-01-29T03:59:28.466Z,97.50
2019-01-29T04:03:39.514Z,97.10
2019-01-29T04:07:50.806Z,97.10
2019-01-29T04:12:02.045Z,97.10
2019-01-29T04:16:13.203Z,96.70
2019-01-29T04:20:24.463Z,96.10
2019-01-29T04:24:35.433Z,96.00
2019-01-29T04:28:46.361Z,95.30
2019-01-29T04:32:57.400Z,95.60
2019-01-29T04:37:08.220Z,95.50
2019-01-29T04:41:19.230Z,95.70
2019-01-29T04:45:31.323Z,95.60
2019-01-29T04:49:42.462Z,95.50
2019-01-29T04:53:57.632Z,95.30
2019-01-29T04:58:05.819Z,95.30
2019-01-29T05:02:16.819Z,95.20
2019-01-29T05:06:27.832Z,95.20
2019-01-29T05:10:40.181Z,95.10
2019-01-29T05:14:51.312Z,95.00
2019-01-29T05:19:02.327Z,95.00
2019-01-29T05:23:13.372Z,95.10
2019-01-29T05:27:24.303Z,94.90
2019-01-29T05:31:35.484Z,94.90
2019-01-29T05:35:46.578Z,94.80
2019-01-29T05:39:57.522Z,94.80
2019-01-29T05:44:08.463Z,94.80
2019-01-29T05:48:19.762Z,94.80
2019-01-29T05:52:30.999Z,95.10
2019-01-29T05:56:42.020Z,95.00
2019-01-29T06:00:52.821Z,95.00
2019-01-29T06:05:08.208Z,95.10
2019-01-29T06:09:20.512Z,95.10
2019-01-29T06:13:31.354Z,95.00
2019-01-29T06:17:42.283Z,95.00
2019-01-29T06:21:54.358Z,95.00
2019-01-29T06:26:06.445Z,95.40
2019-01-29T06:30:19.415Z,95.00
2019-01-29T06:34:30.260Z,95.10
2019-01-29T06:38:41.493Z,95.00
2019-01-29T06:43:08.643Z,95.00
2019-01-29T06:47:35.878Z,95.00
2019-01-29T06:52:03.317Z,94.90
2019-01-29T06:56:30.920Z,94.90
2019-01-29T07:00:58.570Z,94.80
2019-01-29T07:05:26.610Z,94.60
2019-01-29T07:09:53.849Z,94.80
2019-01-29T07:14:20.987Z,94.70
2019-01-29T07:18:50.081Z,94.90
2019-01-29T07:23:17.243Z,94.70
2019-01-29T07:27:44.976Z,94.90
2019-01-29T07:32:12.503Z,94.80
2019-01-29T07:36:39.760Z,94.90
2019-01-29T07:41:07.514Z,94.90
2019-01-29T07:45:35.012Z,94.80
2019-01-29T07:50:02.701Z,94.70
2019-01-29T07:54:33.388Z,94.40
2019-01-29T07:58:59.143Z,94.50
2019-01-29T08:03:27.126Z,94.40
2019-01-29T08:07:54.110Z,94.50
2019-01-29T08:12:21.527Z,94.60
2019-01-29T08:16:49.137Z,94.20
2019-01-29T08:21:16.686Z,93.90
2019-01-29T08:25:47.959Z,93.80
2019-01-29T08:30:17.987Z,93.60
2019-01-29T08:34:45.788Z,93.60
2019-01-29T08:39:13.269Z,93.20
2019-01-29T08:43:40.274Z,93.00
2019-01-29T08:48:07.841Z,92.50
2019-01-29T08:52:34.508Z,92.20
2019-01-29T08:57:01.687Z,92.10
2019-01-29T09:01:29.589Z,92.30
2019-01-29T09:05:58.409Z,92.40
2019-01-29T09:10:25.766Z,92.50
2019-01-29T09:14:54.008Z,87.90
2019-01-29T09:19:22.332Z,87.30
2019-01-29T09:23:49.731Z,89.30
2019-01-29T09:28:18.677Z,90.30
2019-01-29T09:32:46.291Z,90.70
2019-01-29T09:37:13.858Z,90.40
2019-01-29T09:41:41.477Z,90.30
2019-01-29T09:46:08.794Z,90.40
2019-01-29T09:50:36.138Z,90.40
2019-01-29T09:55:05.265Z,90.30
2019-01-29T09:59:32.607Z,90.60
2019-01-29T10:04:00.399Z,90.80
2019-01-29T10:08:27.565Z,90.70
2019-01-29T10:12:54.673Z,90.40
2019-01-29T10:17:22.641Z,90.70
2019-01-29T10:21:49.659Z,90.60
2019-01-29T10:26:17.021Z,90.50
2019-01-29T10:30:43.992Z,90.50
2019-01-29T10:35:13.857Z,90.20
2019-01-29T10:39:41.395Z,90.20
2019-01-29T10:44:08.850Z,89.60
2019-01-29T10:48:35.894Z,88.60
2019-01-29T10:53:03.077Z,81.60
2019-01-29T10:57:29.986Z,73.80
2019-01-29T11:01:57.529Z,79.10
2019-01-29T11:06:25.182Z,81.90
2019-01-29T11:10:52.388Z,83.50
2019-01-29T11:15:25.676Z,82.80
2019-01-29T11:19:53.268Z,78.70
2019-01-29T11:24:20.364Z,80.30
2019-01-29T11:28:47.664Z,83.20
2019-01-29T11:33:15.411Z,84.50
2019-01-29T11:37:42.613Z,84.70
2019-01-29T11:42:10.392Z,85.00
2019-01-29T11:46:38.149Z,85.10
2019-01-29T11:51:05.410Z,84.50
2019-01-29T11:55:32.472Z,83.90
2019-01-29T11:59:59.921Z,84.80
2019-01-29T12:04:27.212Z,83.20
2019-01-29T12:08:54.993Z,82.60
2019-01-29T12:13:22.830Z,80.80
2019-01-29T12:17:50.609Z,80.90
2019-01-29T12:22:17.675Z,81.40
2019-01-29T12:26:46.040Z,81.60
2019-01-29T12:31:14.866Z,81.50
2019-01-29T12:35:44.734Z,81.90
2019-01-29T12:40:14.138Z,82.60
2019-01-29T12:44:47.815Z,82.50
2019-01-29T12:49:17.289Z,82.50
2019-01-29T12:53:49.214Z,81.90
2019-01-29T12:58:20.579Z,82.90
2019-01-29T13:02:49.791Z,82.70
2019-01-29T13:07:20.417Z,81.80
2019-01-29T13:20:50.645Z,82.20
2019-01-29T13:25:17.809Z,83.80
2019-01-29T13:29:44.815Z,82.40
2019-01-29T13:34:12.683Z,82.10
2019-01-29T13:38:33.172Z,81.80
2019-01-29T13:42:43.975Z,82.20
2019-01-29T13:46:54.900Z,82.00
2019-01-29T13:51:05.845Z,81.60
2019-01-29T13:55:17.278Z,80.90
2019-01-29T13:59:29.175Z,79.30
2019-01-29T14:03:40.439Z,79.20
2019-01-29T14:07:51.255Z,77.50
2019-01-29T14:12:02.137Z,78.50
2019-01-29T14:16:12.959Z,79.60
2019-01-29T14:20:23.766Z,80.40
2019-01-29T14:24:34.571Z,81.30
2019-01-29T14:28:45.375Z,81.90
2019-01-29T14:32:56.288Z,82.50
2019-01-29T14:37:07.232Z,82.60
2019-01-29T14:41:18.156Z,83.20
2019-01-29T14:45:30.992Z,81.80
2019-01-29T14:49:41.820Z,82.50
2019-01-29T14:53:52.655Z,82.90
2019-01-29T14:58:04.033Z,83.10
2019-01-29T15:02:14.990Z,83.40
2019-01-29T15:06:32.360Z,83.50
2019-01-29T15:10:38.236Z,83.70
2019-01-29T15:14:49.143Z,83.80
2019-01-29T15:19:01.593Z,83.90
2019-01-29T15:23:12.476Z,84.00
2019-01-29T15:27:23.693Z,84.50
2019-01-29T15:31:34.593Z,84.60
2019-01-29T15:35:45.402Z,84.50
2019-01-29T15:39:56.317Z,85.10
2019-01-29T15:44:07.107Z,85.70
2019-01-29T15:48:17.918Z,85.80
2019-01-29T15:52:28.768Z,86.30
2019-01-29T15:56:39.785Z,86.90
2019-01-29T16:00:50.606Z,87.40
2019-01-29T16:05:01.530Z,87.90
2019-01-29T16:09:12.436Z,88.30
2019-01-29T16:13:23.353Z,88.60
2019-01-29T16:17:34.270Z,88.90
2019-01-29T16:21:45.078Z,89.00
2019-01-29T16:25:56.106Z,89.10
2019-01-29T16:30:15.857Z,89.30
2019-01-29T16:34:30.066Z,89.50
2019-01-29T16:38:40.857Z,89.50
2019-01-29T16:42:52.003Z,89.30
2019-01-29T16:47:02.981Z,89.20
2019-01-29T16:51:13.716Z,89.30
2019-01-29T16:55:24.619Z,88.90
2019-01-29T16:59:35.419Z,88.80
2019-01-29T17:03:46.229Z,88.80
2019-01-29T17:07:57.175Z,88.80
2019-01-29T17:12:08.084Z,89.00
2019-01-29T17:16:19.841Z,89.20
2019-01-29T17:20:41.615Z,89.90
2019-01-29T17:24:52.432Z,90.30
2019-01-29T17:29:03.248Z,90.60
2019-01-29T17:33:19.408Z,90.90
2019-01-29T17:37:31.672Z,91.20
2019-01-29T17:41:46.251Z,91.80
2019-01-29T17:45:57.173Z,91.70
2019-01-29T17:50:13.994Z,91.90
2019-01-29T17:54:24.965Z,92.20
2019-01-29T17:58:36.789Z,92.40
2019-01-29T18:02:47.673Z,92.70
2019-01-29T18:06:58.291Z,92.80
2019-01-29T18:11:09.505Z,93.00
2019-01-29T18:15:25.650Z,93.10
2019-01-29T18:19:37.234Z,93.20
2019-01-29T18:23:48.145Z,93.30
2019-01-29T18:28:01.393Z,93.60
2019-01-29T18:32:11.526Z,93.80
2019-01-29T18:36:22.611Z,93.90
2019-01-29T18:40:42.463Z,94.00
2019-01-29T18:44:53.295Z,94.10
2019-01-29T18:49:04.404Z,94.20
2019-01-29T18:53:15.357Z,94.30
2019-01-29T18:57:26.269Z,94.40
2019-01-29T19:01:37.288Z,94.50
2019-01-29T19:05:48.196Z,94.50
2019-01-29T19:09:59.113Z,94.50
2019-01-29T19:14:10.077Z,94.50
2019-01-29T19:18:20.979Z,94.50
2019-01-29T19:22:31.865Z,94.50
2019-01-29T19:26:41.905Z,94.60
2019-01-29T19:30:52.972Z,94.70
2019-01-29T19:35:04.392Z,94.80
2019-01-29T19:39:15.515Z,94.90
2019-01-29T19:43:26.461Z,95.10
2019-01-29T19:47:38.014Z,95.20
2019-01-29T19:51:49.182Z,95.30
2019-01-29T19:56:00.139Z,95.20
2019-01-29T20:00:23.369Z,95.20
2019-01-29T20:04:34.656Z,95.30
2019-01-29T20:08:45.635Z,95.30
2019-01-29T20:12:56.456Z,95.40
2019-01-29T20:17:07.379Z,95.40
2019-01-29T20:21:18.213Z,95.50
2019-01-29T20:25:29.136Z,95.60
2019-01-29T20:29:39.943Z,95.60
2019-01-29T20:33:50.761Z,95.60
2019-01-29T20:38:01.699Z,95.60
2019-01-29T20:42:12.616Z,95.60
2019-01-29T20:46:23.431Z,95.60
2019-01-29T20:50:36.607Z,95.60
2019-01-29T20:54:47.416Z,95.70
2019-01-29T20:58:59.311Z,95.70
2019-01-29T21:03:10.348Z,95.80
2019-01-29T21:07:21.264Z,95.80
2019-01-29T21:11:32.193Z,95.80
2019-01-29T21:15:43.011Z,95.90
2019-01-29T21:19:53.838Z,96.00
2019-01-29T21:24:04.780Z,95.90
2019-01-29T21:28:15.699Z,95.90
2019-01-29T21:32:26.518Z,95.90
2019-01-29T21:36:37.487Z,95.80
2019-01-29T21:40:48.410Z,95.90
2019-01-29T21:44:59.209Z,95.80
2019-01-29T21:49:10.033Z,95.60
2019-01-29T21:53:20.868Z,95.50
2019-01-29T21:57:31.696Z,95.50
2019-01-29T22:01:42.527Z,95.40
2019-01-29T22:05:53.343Z,95.40
2019-01-29T22:10:06.720Z,95.30
2019-01-29T22:14:17.563Z,95.30
2019-01-29T22:18:28.494Z,95.50
2019-01-29T22:22:39.435Z,95.40
2019-01-29T22:26:50.556Z,95.30
2019-01-29T22:31:01.474Z,95.40
2019-01-29T22:35:12.383Z,95.50
2019-01-29T22:39:23.311Z,95.50
2019-01-29T22:43:34.259Z,95.40
2019-01-29T22:47:45.612Z,95.40
2019-01-29T22:51:55.444Z,95.40
2019-01-29T22:56:06.393Z,95.50
2019-01-29T23:00:55.934Z,95.50
2019-01-29T23:05:08.735Z,95.50
2019-01-29T23:09:19.584Z,95.60
2019-01-29T23:13:30.443Z,95.60
2019-01-29T23:17:42.332Z,95.60
2019-01-29T23:21:53.349Z,95.70
2019-01-29T23:26:04.215Z,95.80
2019-01-29T23:30:21.440Z,95.80
2019-01-29T23:34:34.100Z,95.80
2019-01-29T23:38:47.382Z,95.80
2019-01-29T23:42:57.395Z,95.80
2019-01-29T23:47:08.375Z,95.90
2019-01-29T23:51:19.196Z,95.80
2019-01-29T23:55:30.128Z,95.80
2019-01-29T23:59:40.059Z,95.70
